Time;durP1;ratioP1;P1;durP2;ratioP2;P2;SDS_P1;SDS_P2;PMS_P1;PMS_P2;Temp;Humidity;BMP_temperature;BMP_pressure;BME280_temperature;BME280_humidity;BME280_pressure;Samples;Min_cycle;Max_cycle;Signal;HPM_P1;HPM_P2
2022/03/17 00:02:13;;;;;;;;;;;;;;;;;;5036067;28;19917;-50
2022/03/17 00:04:38;;;;;;;;;;;;;;;;;;5035953;28;19916;-52
2022/03/17 00:07:03;;;;;;;;;;;;;;;;;;5035950;28;19920;-50
2022/03/17 00:09:28;;;;;;;;;;;;;;;;;;5036357;28;19924;-50
2022/03/17 00:11:53;;;;;;;;;;;;;;;;;;5036459;28;19924;-50
2022/03/17 00:14:18;;;;;;;;;;;;;;;;;;5036342;28;19905;-51
2022/03/17 00:16:43;;;;;;;;;;;;;;;;;;5035476;28;19920;-51
2022/03/17 00:19:09;;;;;;;;;;;;;;;;;;5036418;28;19917;-49
2022/03/17 00:21:35;;;;;;;;;;;;;;;;;;5036168;28;20469;-51
2022/03/17 00:24:00;;;;;;;;;;;;;;;;;;5036529;28;19915;-49
2022/03/17 00:26:25;;;;;;;;;;;;;;;;;;5035101;28;20355;-50
2022/03/17 00:28:50;;;;;;;;;;;;;;;;;;5036320;28;19952;-49
2022/03/17 00:31:17;;;;;;;;;;;;;;;;;;5035979;28;19948;-48
2022/03/17 00:33:42;;;;;;;;;;;;;;;;;;5035940;28;19916;-50
2022/03/17 00:36:07;;;;;;;;;;;;;;;;;;5035245;28;20368;-50
2022/03/17 00:38:32;;;;;;;;;;;;;;;;;;5035916;28;19920;-49
2022/03/17 00:40:57;;;;;;;;;;;;;;;;;;5035812;28;20280;-52
2022/03/17 00:43:24;;;;;;;;;;;;;;;;;;5035765;28;19909;-51
2022/03/17 00:45:49;;;;;;;;;;;;;;;;;;5034962;28;19917;-51
2022/03/17 00:48:14;;;;;;;;;;;;;;;;;;5042994;23;20387;-49
2022/03/17 00:50:39;;;;;;;;;;;;;;;;;;5035090;28;19921;-52
2022/03/17 00:53:04;;;;;;;;;;;;;;;;;;5035595;28;20245;-50
2022/03/17 00:55:30;;;;;;;;;;;;;;;;;;5035563;28;19955;-51
2022/03/17 00:57:55;;;;;;;;;;;;;;;;;;5034770;28;19915;-50
2022/03/17 01:00:21;;;;;;;;;;;;;;;;;;5035443;28;19967;-51
2022/03/17 01:02:46;;;;;;;;;;;;;;;;;;5035401;28;19919;-50
2022/03/17 01:05:11;;;;;;;;;;;;;;;;;;5035084;28;20003;-52
2022/03/17 01:07:37;;;;;;;;;;;;;;;;;;5034937;28;19999;-49
2022/03/17 01:10:02;;;;;;;;;;;;;;;;;;5035371;28;19952;-52
2022/03/17 01:12:27;;;;;;;;;;;;;;;;;;5035617;28;19913;-49
2022/03/17 01:14:52;;;;;;;;;;;;;;;;;;5034765;28;19912;-49
2022/03/17 01:17:18;;;;;;;;;;;;;;;;;;5034455;28;20055;-50
2022/03/17 01:19:43;;;;;;;;;;;;;;;;;;5035274;28;20047;-49
2022/03/17 01:22:08;;;;;;;;;;;;;;;;;;5035134;28;19913;-49
2022/03/17 01:24:33;;;;;;;;;;;;;;;;;;5034415;28;19909;-49
2022/03/17 01:26:58;;;;;;;;;;;;;;;;;;5034844;28;19920;-49
2022/03/17 01:29:23;;;;;;;;;;;;;;;;;;5034961;28;19963;-49
2022/03/17 01:31:50;;;;;;;;;;;;;;;;;;5050430;28;19920;-50
2022/03/17 01:34:17;;;;;;;;;;;;;;;;;;5034803;28;20286;-50
2022/03/17 01:36:42;;;;;;;;;;;;;;;;;;5034385;28;19913;-49
2022/03/17 01:39:07;;;;;;;;;;;;;;;;;;5034963;28;19909;-49
2022/03/17 01:41:32;;;;;;;;;;;;;;;;;;5034818;28;19920;-49
2022/03/17 01:43:57;;;;;;;;;;;;;;;;;;5034871;28;19909;-52
2022/03/17 01:46:23;;;;;;;;;;;;;;;;;;5033931;28;19909;-50
2022/03/17 01:48:48;;;;;;;;;;;;;;;;;;5034744;28;20004;-50
2022/03/17 01:51:13;;;;;;;;;;;;;;;;;;5034834;28;19971;-49
2022/03/17 01:53:38;;;;;;;;;;;;;;;;;;5034987;28;19909;-49
2022/03/17 01:56:03;;;;;;;;;;;;;;;;;;5034256;28;19920;-49
2022/03/17 01:58:28;;;;;;;;;;;;;;;;;;5034671;28;19920;-50
2022/03/17 02:00:53;;;;;;;;;;;;;;;;;;5034518;28;19913;-49
2022/03/17 02:03:19;;;;;;;;;;;;;;;;;;5034581;28;19913;-50
2022/03/17 02:05:44;;;;;;;;;;;;;;;;;;5034122;28;19956;-49
2022/03/17 02:08:10;;;;;;;;;;;;;;;;;;5034473;28;19980;-50
2022/03/17 02:13:08;;;;;;;;;;;;;;;;;;5034513;28;19916;-50
2022/03/17 02:13:20;;;;;;;;;;;;;;;;;;5034510;28;20004;-51
2022/03/17 02:15:45;;;;;;;;;;;;;;;;;;5033829;28;19953;-50
2022/03/17 02:18:10;;;;;;;;;;;;;;;;;;5034088;28;19952;-50
2022/03/17 02:20:35;;;;;;;;;;;;;;;;;;5034447;28;20399;-51
2022/03/17 02:25:33;;;;;;;;;;;;;;;;;;5034398;28;19913;-52
2022/03/17 02:25:47;;;;;;;;;;;;;;;;;;5033333;28;19921;-50
2022/03/17 02:28:12;;;;;;;;;;;;;;;;;;5038113;28;20055;-52
2022/03/17 02:30:37;;;;;;;;;;;;;;;;;;5038319;28;19959;-50
2022/03/17 02:33:02;;;;;;;;;;;;;;;;;;5038414;28;19937;-50
2022/03/17 02:35:28;;;;;;;;;;;;;;;;;;5038319;28;19917;-50
2022/03/17 02:37:54;;;;;;;;;;;;;;;;;;5037245;28;20291;-50
2022/03/17 02:40:20;;;;;;;;;;;;;;;;;;5038291;28;19909;-51
2022/03/17 02:42:45;;;;;;;;;;;;;;;;;;5038068;28;19917;-50
2022/03/17 02:45:10;;;;;;;;;;;;;;;;;;5038077;28;19996;-51
2022/03/17 02:47:36;;;;;;;;;;;;;;;;;;5037140;28;19967;-50
2022/03/17 02:50:01;;;;;;;;;;;;;;;;;;5037738;28;19921;-50
2022/03/17 02:52:26;;;;;;;;;;;;;;;;;;5037919;28;19917;-49
2022/03/17 02:54:51;;;;;;;;;;;;;;;;;;5037104;28;19920;-49
2022/03/17 02:57:16;;;;;;;;;;;;;;;;;;5037635;28;19916;-52
2022/03/17 02:59:41;;;;;;;;;;;;;;;;;;5037842;28;19917;-52
2022/03/17 03:02:06;;;;;;;;;;;;;;;;;;5037651;28;20379;-50
2022/03/17 03:04:34;;;;;;;;;;;;;;;;;;5036907;28;20387;-50
2022/03/17 03:07:00;;;;;;;;;;;;;;;;;;5037591;28;19963;-51
2022/03/17 03:09:25;;;;;;;;;;;;;;;;;;5037520;28;19913;-50
2022/03/17 03:11:50;;;;;;;;;;;;;;;;;;5037557;28;20364;-50
2022/03/17 03:14:15;;;;;;;;;;;;;;;;;;5036550;28;20250;-50
2022/03/17 03:16:40;;;;;;;;;;;;;;;;;;5037307;28;19909;-50
2022/03/17 03:19:05;;;;;;;;;;;;;;;;;;5037273;28;19916;-52
2022/03/17 03:21:30;;;;;;;;;;;;;;;;;;5037254;28;19920;-50
2022/03/17 03:23:56;;;;;;;;;;;;;;;;;;5037486;28;19920;-50
2022/03/17 03:26:21;;;;;;;;;;;;;;;;;;5036741;28;19914;-49
2022/03/17 03:28:46;;;;;;;;;;;;;;;;;;5024521;28;19909;-49
2022/03/17 03:31:11;;;;;;;;;;;;;;;;;;5017533;28;19909;-49
2022/03/17 03:33:36;;;;;;;;;;;;;;;;;;5017644;28;19916;-49
2022/03/17 03:38:46;;;;;;;;;;;;;;;;;;5037173;28;20047;-49
2022/03/17 03:41:11;;;;;;;;;;;;;;;;;;5036954;28;19909;-48
2022/03/17 03:43:36;;;;;;;;;;;;;;;;;;5036833;28;19913;-50
2022/03/17 03:46:01;;;;;;;;;;;;;;;;;;5036443;28;19913;-50
2022/03/17 03:48:27;;;;;;;;;;;;;;;;;;5033683;28;19917;-50
2022/03/17 03:50:52;;;;;;;;;;;;;;;;;;5036458;28;19924;-50
2022/03/17 03:53:17;;;;;;;;;;;;;;;;;;5036791;28;19915;-50
2022/03/17 03:55:42;;;;;;;;;;;;;;;;;;5036231;28;19913;-49
2022/03/17 03:58:07;;;;;;;;;;;;;;;;;;5036623;28;19916;-50
2022/03/17 04:00:33;;;;;;;;;;;;;;;;;;5036647;28;19917;-49
2022/03/17 04:02:58;;;;;;;;;;;;;;;;;;5036586;28;19974;-49
2022/03/17 04:05:27;;;;;;;;;;;;;;;;;;5035975;28;20016;-49
2022/03/17 04:07:55;;;;;;;;;;;;;;;;;;5036045;28;19936;-49
2022/03/17 04:10:20;;;;;;;;;;;;;;;;;;5036580;28;19910;-50
2022/03/17 04:12:45;;;;;;;;;;;;;;;;;;5036610;28;19909;-50
2022/03/17 04:15:10;;;;;;;;;;;;;;;;;;5035737;28;20327;-50
2022/03/17 04:17:35;;;;;;;;;;;;;;;;;;5036502;28;20003;-50
2022/03/17 04:20:00;;;;;;;;;;;;;;;;;;5036352;28;19992;-51
2022/03/17 04:22:26;;;;;;;;;;;;;;;;;;5036175;28;19936;-49
2022/03/17 04:24:51;;;;;;;;;;;;;;;;;;5035456;28;20265;-51
2022/03/17 04:27:16;;;;;;;;;;;;;;;;;;5035301;28;19913;-51
2022/03/17 04:29:41;;;;;;;;;;;;;;;;;;5036142;28;19919;-51
2022/03/17 04:32:07;;;;;;;;;;;;;;;;;;5036125;28;20283;-50
2022/03/17 04:34:32;;;;;;;;;;;;;;;;;;5036337;28;20287;-49
2022/03/17 04:36:57;;;;;;;;;;;;;;;;;;5035490;28;20352;-50
2022/03/17 04:39:22;;;;;;;;;;;;;;;;;;5036069;28;19913;-49
2022/03/17 04:41:48;;;;;;;;;;;;;;;;;;5035824;28;20437;-50
2022/03/17 04:44:13;;;;;;;;;;;;;;;;;;5035653;28;19913;-49
2022/03/17 04:46:38;;;;;;;;;;;;;;;;;;5035303;28;19913;-52
2022/03/17 04:49:03;;;;;;;;;;;;;;;;;;5035186;28;19917;-50
2022/03/17 04:51:29;;;;;;;;;;;;;;;;;;5035665;28;19924;-50
2022/03/17 04:53:54;;;;;;;;;;;;;;;;;;5035741;28;19909;-49
2022/03/17 04:56:19;;;;;;;;;;;;;;;;;;5035170;28;19921;-49
2022/03/17 04:58:44;;;;;;;;;;;;;;;;;;5035383;28;19914;-50
2022/03/17 05:01:09;;;;;;;;;;;;;;;;;;5035527;28;19916;-51
2022/03/17 05:03:35;;;;;;;;;;;;;;;;;;5035349;28;19909;-52
2022/03/17 05:06:00;;;;;;;;;;;;;;;;;;5034818;28;19944;-51
2022/03/17 05:08:25;;;;;;;;;;;;;;;;;;5035425;28;20372;-50
2022/03/17 05:10:52;;;;;;;;;;;;;;;;;;5035260;28;19982;-49
2022/03/17 05:13:18;;;;;;;;;;;;;;;;;;5035149;28;19905;-49
2022/03/17 05:15:43;;;;;;;;;;;;;;;;;;5034913;28;19916;-51
2022/03/17 05:18:08;;;;;;;;;;;;;;;;;;5033818;28;19976;-49
2022/03/17 05:20:34;;;;;;;;;;;;;;;;;;5034992;28;20054;-53
2022/03/17 05:22:59;;;;;;;;;;;;;;;;;;5035167;28;19913;-50
2022/03/17 05:25:24;;;;;;;;;;;;;;;;;;5035028;28;19909;-51
2022/03/17 05:27:52;;;;;;;;;;;;;;;;;;5034477;28;19921;-49
2022/03/17 05:30:17;;;;;;;;;;;;;;;;;;5034990;28;20237;-49
2022/03/17 05:32:42;;;;;;;;;;;;;;;;;;5034889;28;19916;-52
2022/03/17 05:35:07;;;;;;;;;;;;;;;;;;5033660;28;19910;-49
2022/03/17 05:37:34;;;;;;;;;;;;;;;;;;5034379;28;19947;-50
2022/03/17 05:39:59;;;;;;;;;;;;;;;;;;5034773;28;20245;-50
2022/03/17 05:42:24;;;;;;;;;;;;;;;;;;5034795;28;19966;-50
2022/03/17 05:44:50;;;;;;;;;;;;;;;;;;5034622;28;19960;-51
2022/03/17 05:47:15;;;;;;;;;;;;;;;;;;5033873;28;20070;-49
2022/03/17 05:49:40;;;;;;;;;;;;;;;;;;5033891;28;19943;-50
2022/03/17 05:52:06;;;;;;;;;;;;;;;;;;5028806;28;20458;-49
2022/03/17 05:54:34;;;;;;;;;;;;;;;;;;5014815;28;19909;-51
2022/03/17 05:56:59;;;;;;;;;;;;;;;;;;5039939;28;20344;-49
2022/03/17 05:59:25;;;;;;;;;;;;;;;;;;5034420;28;19963;-50
2022/03/17 06:01:50;;;;;;;;;;;;;;;;;;5048506;28;19917;-52
2022/03/17 06:04:15;;;;;;;;;;;;;;;;;;5034453;28;19975;-51
2022/03/17 06:06:40;;;;;;;;;;;;;;;;;;5034032;28;19967;-50
2022/03/17 06:09:05;;;;;;;;;;;;;;;;;;5035263;28;20353;-54
2022/03/17 06:11:30;;;;;;;;;;;;;;;;;;5034807;28;20372;-51
2022/03/17 06:13:56;;;;;;;;;;;;;;;;;;5035121;28;20352;-53
2022/03/17 06:16:22;;;;;;;;;;;;;;;;;;5033305;28;19920;-51
2022/03/17 06:18:47;;;;;;;;;;;;;;;;;;5020679;28;19953;-52
2022/03/17 06:21:12;;;;;;;;;;;;;;;;;;5034638;28;20430;-51
2022/03/17 06:23:37;;;;;;;;;;;;;;;;;;5034517;28;20083;-51
2022/03/17 06:26:02;;;;;;;;;;;;;;;;;;5029695;28;20008;-51
2022/03/17 06:28:28;;;;;;;;;;;;;;;;;;5030865;28;20008;-51
2022/03/17 06:30:54;;;;;;;;;;;;;;;;;;5015731;28;19921;-51
2022/03/17 06:33:19;;;;;;;;;;;;;;;;;;5020804;28;20284;-53
2022/03/17 06:35:44;;;;;;;;;;;;;;;;;;5024055;28;19914;-52
2022/03/17 06:38:09;;;;;;;;;;;;;;;;;;5019032;28;20369;-52
2022/03/17 06:40:35;;;;;;;;;;;;;;;;;;5023392;28;20637;-51
2022/03/17 06:43:01;;;;;;;;;;;;;;;;;;5025336;28;19933;-50
2022/03/17 06:45:27;;;;;;;;;;;;;;;;;;5022640;28;19927;-50
2022/03/17 06:47:52;;;;;;;;;;;;;;;;;;5012087;28;19925;-49
2022/03/17 06:50:17;;;;;;;;;;;;;;;;;;5010561;28;19936;-50
2022/03/17 06:52:42;;;;;;;;;;;;;;;;;;4983266;28;20899;-51
2022/03/17 06:55:07;;;;;;;;;;;;;;;;;;4976636;28;20012;-50
2022/03/17 06:57:32;;;;;;;;;;;;;;;;;;4979029;28;20023;-50
2022/03/17 06:59:57;;;;;;;;;;;;;;;;;;4997929;28;19921;-52
2022/03/17 07:02:22;;;;;;;;;;;;;;;;;;4985297;28;20411;-51
2022/03/17 07:04:48;;;;;;;;;;;;;;;;;;4999004;28;20446;-50
2022/03/17 07:07:13;;;;;;;;;;;;;;;;;;5001271;28;20300;-50
2022/03/17 07:09:38;;;;;;;;;;;;;;;;;;4985904;28;19921;-52
2022/03/17 07:12:03;;;;;;;;;;;;;;;;;;4991164;28;20386;-52
2022/03/17 07:14:28;;;;;;;;;;;;;;;;;;4979588;28;19952;-51
2022/03/17 07:16:53;;;;;;;;;;;;;;;;;;4947887;28;24727;-51
2022/03/17 07:19:18;;;;;;;;;;;;;;;;;;4913108;28;23583;-53
2022/03/17 07:21:43;;;;;;;;;;;;;;;;;;4867093;28;21549;-51
2022/03/17 07:24:09;;;;;;;;;;;;;;;;;;4784443;28;22389;-53
2022/03/17 07:26:34;;;;;;;;;;;;;;;;;;4740354;28;23415;-53
2022/03/17 07:29:01;;;;;;;;;;;;;;;;;;4690949;28;19958;-52
2022/03/17 07:31:26;;;;;;;;;;;;;;;;;;4689134;28;19998;-51
2022/03/17 07:33:51;;;;;;;;;;;;;;;;;;4767414;28;19947;-51
2022/03/17 07:36:16;;;;;;;;;;;;;;;;;;4766539;28;19925;-54
2022/03/17 07:38:41;;;;;;;;;;;;;;;;;;4789135;28;21077;-54
2022/03/17 07:41:07;;;;;;;;;;;;;;;;;;4780427;28;19921;-52
2022/03/17 07:43:32;;;;;;;;;;;;;;;;;;4817079;28;19929;-54
2022/03/17 07:45:57;;;;;;;;;;;;;;;;;;4802255;28;19925;-53
2022/03/17 07:48:22;;;;;;;;;;;;;;;;;;4822299;28;19948;-51
2022/03/17 07:50:47;;;;;;;;;;;;;;;;;;4821575;28;19944;-51
2022/03/17 07:53:12;;;;;;;;;;;;;;;;;;4824960;28;19979;-51
2022/03/17 07:55:37;;;;;;;;;;;;;;;;;;4802810;28;21195;-52
2022/03/17 07:58:02;;;;;;;;;;;;;;;;;;4825850;28;22897;-49
2022/03/17 08:00:27;;;;;;;;;;;;;;;;;;4806409;28;20486;-51
2022/03/17 08:02:54;;;;;;;;;;;;;;;;;;4793559;28;25753;-50
2022/03/17 08:05:19;;;;;;;;;;;;;;;;;;4818156;28;19971;-54
2022/03/17 08:07:44;;;;;;;;;;;;;;;;;;4789587;28;20011;-51
2022/03/17 08:10:09;;;;;;;;;;;;;;;;;;4788143;28;19983;-51
2022/03/17 08:12:35;;;;;;;;;;;;;;;;;;4779142;28;20433;-54
2022/03/17 08:15:01;;;;;;;;;;;;;;;;;;4728517;28;20563;-51
2022/03/17 08:17:26;;;;;;;;;;;;;;;;;;4648864;28;22917;-52
2022/03/17 08:19:53;;;;;;;;;;;;;;;;;;4661091;28;22536;-54
2022/03/17 08:22:18;;;;;;;;;;;;;;;;;;4577638;28;20984;-53
2022/03/17 08:24:43;;;;;;;;;;;;;;;;;;4643945;28;19921;-53
2022/03/17 08:27:08;;;;;;;;;;;;;;;;;;4642595;28;21471;-50
2022/03/17 08:29:33;;;;;;;;;;;;;;;;;;4603332;28;19975;-52
2022/03/17 08:32:00;;;;;;;;;;;;;;;;;;4718288;28;22754;-51
2022/03/17 08:34:26;;;;;;;;;;;;;;;;;;4721737;28;22471;-52
2022/03/17 08:36:53;;;;;;;;;;;;;;;;;;4664570;28;21747;-52
2022/03/17 08:39:18;;;;;;;;;;;;;;;;;;4672787;28;20052;-50
2022/03/17 08:41:43;;;;;;;;;;;;;;;;;;4699876;28;23007;-51
2022/03/17 08:44:08;;;;;;;;;;;;;;;;;;4715039;28;21987;-51
2022/03/17 08:49:22;;;;;;;;;;;;;;;;;;4702643;28;20476;-52
2022/03/17 08:51:49;;;;;;;;;;;;;;;;;;4720406;28;19921;-52
2022/03/17 08:54:15;;;;;;;;;;;;;;;;;;4775840;28;19921;-52
2022/03/17 08:56:40;;;;;;;;;;;;;;;;;;4787445;28;22421;-49
2022/03/17 08:59:06;;;;;;;;;;;;;;;;;;4738799;28;21121;-52
2022/03/17 09:01:31;;;;;;;;;;;;;;;;;;4721664;28;21217;-52
2022/03/17 09:03:57;;;;;;;;;;;;;;;;;;4676849;28;20433;-52
2022/03/17 09:06:22;;;;;;;;;;;;;;;;;;4694093;28;21688;-51
2022/03/17 09:08:47;;;;;;;;;;;;;;;;;;4670044;28;20000;-49
2022/03/17 09:11:13;;;;;;;;;;;;;;;;;;4624461;28;19990;-55
2022/03/17 09:13:38;;;;;;;;;;;;;;;;;;4655134;28;20494;-54
2022/03/17 09:16:05;;;;;;;;;;;;;;;;;;4709061;28;20015;-53
2022/03/17 09:18:30;;;;;;;;;;;;;;;;;;4788471;28;23397;-52
2022/03/17 09:20:56;;;;;;;;;;;;;;;;;;4763996;28;22805;-50
2022/03/17 09:23:21;;;;;;;;;;;;;;;;;;4736926;28;21422;-51
2022/03/17 09:25:47;;;;;;;;;;;;;;;;;;4725462;28;21869;-52
2022/03/17 09:28:12;;;;;;;;;;;;;;;;;;4593704;28;21745;-54
2022/03/17 09:30:37;;;;;;;;;;;;;;;;;;4575595;28;21290;-52
2022/03/17 09:33:04;;;;;;;;;;;;;;;;;;4628003;28;21760;-55
2022/03/17 09:35:29;;;;;;;;;;;;;;;;;;4746608;28;20623;-53
2022/03/17 09:37:54;;;;;;;;;;;;;;;;;;4761792;28;19964;-54
2022/03/17 09:40:19;;;;;;;;;;;;;;;;;;4755372;28;21638;-52
2022/03/17 09:42:45;;;;;;;;;;;;;;;;;;4765670;28;20429;-53
2022/03/17 09:45:10;;;;;;;;;;;;;;;;;;4797234;28;21760;-51
2022/03/17 09:47:35;;;;;;;;;;;;;;;;;;4807637;28;19921;-52
2022/03/17 09:50:00;;;;;;;;;;;;;;;;;;4815573;28;19929;-51
2022/03/17 09:52:26;;;;;;;;;;;;;;;;;;4803212;28;19973;-52
2022/03/17 09:54:52;;;;;;;;;;;;;;;;;;4789831;28;22756;-55
2022/03/17 09:57:17;;;;;;;;;;;;;;;;;;4786966;28;23051;-52
2022/03/17 09:59:42;;;;;;;;;;;;;;;;;;4793596;28;21785;-52
2022/03/17 10:02:07;;;;;;;;;;;;;;;;;;4772267;28;21068;-52
2022/03/17 10:04:32;;;;;;;;;;;;;;;;;;4783110;28;21540;-54
2022/03/17 10:06:58;;;;;;;;;;;;;;;;;;4776575;28;20639;-53
2022/03/17 10:09:23;;;;;;;;;;;;;;;;;;4798262;28;22053;-51
2022/03/17 10:11:48;;;;;;;;;;;;;;;;;;4813598;28;21573;-51
2022/03/17 10:14:13;;;;;;;;;;;;;;;;;;4819147;28;19921;-54
2022/03/17 10:16:39;;;;;;;;;;;;;;;;;;4766501;28;19927;-53
2022/03/17 10:19:04;;;;;;;;;;;;;;;;;;4706127;28;19921;-53
2022/03/17 10:21:29;;;;;;;;;;;;;;;;;;4552076;28;20011;-54
2022/03/17 10:23:55;;;;;;;;;;;;;;;;;;4455468;28;21399;-52
2022/03/17 10:26:20;;;;;;;;;;;;;;;;;;4563790;28;19975;-51
2022/03/17 10:28:58;;;;;;;;;;;;;;;;;;4628500;28;20714;-51
2022/03/17 10:31:24;;;;;;;;;;;;;;;;;;4694744;28;19932;-52
2022/03/17 10:33:50;;;;;;;;;;;;;;;;;;4776620;28;22915;-51
2022/03/17 10:36:15;;;;;;;;;;;;;;;;;;4769768;28;20023;-52
2022/03/17 10:38:40;;;;;;;;;;;;;;;;;;4771205;28;19925;-53
2022/03/17 10:41:07;;;;;;;;;;;;;;;;;;4752545;28;19921;-52
2022/03/17 10:43:33;;;;;;;;;;;;;;;;;;4762155;28;20805;-53
2022/03/17 10:45:58;;;;;;;;;;;;;;;;;;4728124;28;20530;-52
2022/03/17 10:48:23;;;;;;;;;;;;;;;;;;4744503;28;19925;-51
2022/03/17 10:50:48;;;;;;;;;;;;;;;;;;4749348;28;24161;-52
2022/03/17 10:53:14;;;;;;;;;;;;;;;;;;4727845;28;20056;-50
2022/03/17 10:55:39;;;;;;;;;;;;;;;;;;4715593;28;20033;-52
2022/03/17 10:58:04;;;;;;;;;;;;;;;;;;4724758;28;20028;-51
2022/03/17 11:00:29;;;;;;;;;;;;;;;;;;4730717;28;21067;-55
2022/03/17 11:02:57;;;;;;;;;;;;;;;;;;4717833;28;21502;-52
2022/03/17 11:05:22;;;;;;;;;;;;;;;;;;4683813;28;21855;-52
2022/03/17 11:07:47;;;;;;;;;;;;;;;;;;4663580;28;20153;-49
2022/03/17 11:10:15;;;;;;;;;;;;;;;;;;4629515;28;20067;-52
2022/03/17 11:12:40;;;;;;;;;;;;;;;;;;4614898;28;23219;-52
2022/03/17 11:15:05;;;;;;;;;;;;;;;;;;4580392;28;21384;-51
2022/03/17 11:17:30;;;;;;;;;;;;;;;;;;4549488;28;20658;-54
2022/03/17 11:19:55;;;;;;;;;;;;;;;;;;4622433;28;20469;-52
2022/03/17 11:22:22;;;;;;;;;;;;;;;;;;4576452;28;21774;-54
2022/03/17 11:24:47;;;;;;;;;;;;;;;;;;4569182;28;21842;-51
2022/03/17 11:27:12;;;;;;;;;;;;;;;;;;4625865;28;23279;-51
2022/03/17 11:29:37;;;;;;;;;;;;;;;;;;4655085;28;20019;-55
2022/03/17 11:32:05;;;;;;;;;;;;;;;;;;4602904;28;21304;-49
2022/03/17 11:34:31;;;;;;;;;;;;;;;;;;4597373;28;20703;-54
2022/03/17 11:36:56;;;;;;;;;;;;;;;;;;4490986;28;20519;-51
2022/03/17 11:39:21;;;;;;;;;;;;;;;;;;4440925;28;19922;-52
2022/03/17 11:41:48;;;;;;;;;;;;;;;;;;4541471;28;21809;-50
2022/03/17 11:44:14;;;;;;;;;;;;;;;;;;4597245;28;19921;-54
2022/03/17 11:46:39;;;;;;;;;;;;;;;;;;4566160;28;20112;-54
2022/03/17 11:49:04;;;;;;;;;;;;;;;;;;4622951;28;20376;-52
2022/03/17 11:51:29;;;;;;;;;;;;;;;;;;4610219;28;19925;-51
2022/03/17 11:53:54;;;;;;;;;;;;;;;;;;4639605;28;19925;-54
2022/03/17 11:56:19;;;;;;;;;;;;;;;;;;4596936;28;20728;-51
2022/03/17 11:58:46;;;;;;;;;;;;;;;;;;4631526;28;21023;-54
2022/03/17 12:01:11;;;;;;;;;;;;;;;;;;4706198;28;19925;-54
2022/03/17 12:03:39;;;;;;;;;;;;;;;;;;4755297;28;20632;-51
2022/03/17 12:06:05;;;;;;;;;;;;;;;;;;4760912;28;20023;-54
2022/03/17 12:08:30;;;;;;;;;;;;;;;;;;4798600;28;20580;-54
2022/03/17 12:10:55;;;;;;;;;;;;;;;;;;4838271;28;20003;-54
2022/03/17 12:13:20;;;;;;;;;;;;;;;;;;4834994;28;19925;-53
2022/03/17 12:15:47;;;;;;;;;;;;;;;;;;4827528;28;20607;-52
2022/03/17 12:18:12;;;;;;;;;;;;;;;;;;4787794;28;21622;-53
2022/03/17 12:20:37;;;;;;;;;;;;;;;;;;4776104;28;19935;-54
2022/03/17 12:23:02;;;;;;;;;;;;;;;;;;4758335;28;19929;-51
2022/03/17 12:25:32;;;;;;;;;;;;;;;;;;4739208;28;19931;-54
2022/03/17 12:27:57;;;;;;;;;;;;;;;;;;4712296;28;20064;-54
2022/03/17 12:30:22;;;;;;;;;;;;;;;;;;4614014;28;22204;-53
2022/03/17 12:32:47;;;;;;;;;;;;;;;;;;4525582;28;21387;-51
2022/03/17 12:35:12;;;;;;;;;;;;;;;;;;4463098;28;19921;-51
2022/03/17 12:37:37;;;;;;;;;;;;;;;;;;4612211;28;20894;-51
2022/03/17 12:40:03;;;;;;;;;;;;;;;;;;4705620;28;22734;-53
2022/03/17 12:42:28;;;;;;;;;;;;;;;;;;4750008;28;19925;-51
2022/03/17 12:44:53;;;;;;;;;;;;;;;;;;4750206;28;20442;-51
2022/03/17 12:47:19;;;;;;;;;;;;;;;;;;4729880;28;20741;-53
2022/03/17 12:49:44;;;;;;;;;;;;;;;;;;4693144;23;22661;-53
2022/03/17 12:52:09;;;;;;;;;;;;;;;;;;4673117;28;21806;-52
2022/03/17 12:54:34;;;;;;;;;;;;;;;;;;4651174;28;19926;-55
2022/03/17 12:56:59;;;;;;;;;;;;;;;;;;4688824;28;21544;-52
2022/03/17 12:59:24;;;;;;;;;;;;;;;;;;4653444;28;20920;-52
2022/03/17 13:01:50;;;;;;;;;;;;;;;;;;4656492;28;21095;-52
2022/03/17 13:04:15;;;;;;;;;;;;;;;;;;4648604;28;20771;-55
2022/03/17 13:06:55;;;;;;;;;;;;;;;;;;4604783;28;25862;-52
2022/03/17 13:09:21;;;;;;;;;;;;;;;;;;4618204;28;22416;-55
2022/03/17 13:14:30;;;;;;;;;;;;;;;;;;4564755;28;20826;-52
2022/03/17 13:16:55;;;;;;;;;;;;;;;;;;4547856;28;21079;-53
2022/03/17 13:19:20;;;;;;;;;;;;;;;;;;4471565;28;23060;-54
2022/03/17 13:21:47;;;;;;;;;;;;;;;;;;4534914;28;20197;-54
2022/03/17 13:24:12;;;;;;;;;;;;;;;;;;4510776;28;20004;-51
2022/03/17 13:26:38;;;;;;;;;;;;;;;;;;4575098;28;20346;-52
2022/03/17 13:29:03;;;;;;;;;;;;;;;;;;4581989;28;20585;-52
2022/03/17 13:31:31;;;;;;;;;;;;;;;;;;4692993;28;20679;-55
2022/03/17 13:33:58;;;;;;;;;;;;;;;;;;4720577;28;19921;-52
2022/03/17 13:36:24;;;;;;;;;;;;;;;;;;4700803;28;19922;-53
2022/03/17 13:38:49;;;;;;;;;;;;;;;;;;4686344;28;21580;-51
2022/03/17 13:41:14;;;;;;;;;;;;;;;;;;4742173;28;20533;-51
2022/03/17 13:43:40;;;;;;;;;;;;;;;;;;4726941;28;20023;-51
2022/03/17 13:46:05;;;;;;;;;;;;;;;;;;4700019;28;23154;-54
2022/03/17 13:48:31;;;;;;;;;;;;;;;;;;4685848;28;19976;-52
2022/03/17 13:50:56;;;;;;;;;;;;;;;;;;4695196;28;21104;-53
2022/03/17 13:53:21;;;;;;;;;;;;;;;;;;4662882;28;21103;-54
2022/03/17 13:55:46;;;;;;;;;;;;;;;;;;4674707;28;20529;-51
2022/03/17 13:58:12;;;;;;;;;;;;;;;;;;4644221;28;19926;-54
2022/03/17 14:00:37;;;;;;;;;;;;;;;;;;4643316;28;20493;-54
2022/03/17 14:03:02;;;;;;;;;;;;;;;;;;4656359;28;19925;-52
2022/03/17 14:05:27;;;;;;;;;;;;;;;;;;4672037;28;21923;-52
2022/03/17 14:07:52;;;;;;;;;;;;;;;;;;4676509;28;19929;-53
2022/03/17 14:10:17;;;;;;;;;;;;;;;;;;4641129;28;22606;-55
2022/03/17 14:12:42;;;;;;;;;;;;;;;;;;4628608;28;20592;-52
2022/03/17 14:15:07;;;;;;;;;;;;;;;;;;4631288;28;21664;-50
2022/03/17 14:17:32;;;;;;;;;;;;;;;;;;4719693;28;19922;-53
2022/03/17 14:19:58;;;;;;;;;;;;;;;;;;4740045;28;19922;-54
2022/03/17 14:25:07;;;;;;;;;;;;;;;;;;4800242;28;19926;-51
2022/03/17 14:27:32;;;;;;;;;;;;;;;;;;4812479;28;19948;-54
2022/03/17 14:29:57;;;;;;;;;;;;;;;;;;4860456;28;19921;-52
2022/03/17 14:32:22;;;;;;;;;;;;;;;;;;4832335;28;20763;-52
2022/03/17 14:34:47;;;;;;;;;;;;;;;;;;4860318;28;19921;-52
2022/03/17 14:37:12;;;;;;;;;;;;;;;;;;4835670;28;20808;-51
2022/03/17 14:39:43;;;;;;;;;;;;;;;;;;4841636;28;19925;-56
2022/03/17 14:42:12;;;;;;;;;;;;;;;;;;4854541;28;20618;-55
2022/03/17 14:44:37;;;;;;;;;;;;;;;;;;4828487;28;19928;-51
2022/03/17 14:47:03;;;;;;;;;;;;;;;;;;4790947;28;20079;-52
2022/03/17 14:49:28;;;;;;;;;;;;;;;;;;4822357;28;20993;-51
2022/03/17 14:51:53;;;;;;;;;;;;;;;;;;4833371;28;21113;-54
2022/03/17 14:54:18;;;;;;;;;;;;;;;;;;4866173;28;20071;-54
2022/03/17 14:56:44;;;;;;;;;;;;;;;;;;4854267;28;20697;-54
2022/03/17 14:59:09;;;;;;;;;;;;;;;;;;4867466;28;21072;-51
2022/03/17 15:01:35;;;;;;;;;;;;;;;;;;4817320;28;20119;-51
2022/03/17 15:04:00;;;;;;;;;;;;;;;;;;4837864;28;19926;-53
2022/03/17 15:06:25;;;;;;;;;;;;;;;;;;4871366;28;19926;-54
2022/03/17 15:08:50;;;;;;;;;;;;;;;;;;4902140;28;19922;-51
2022/03/17 15:11:15;;;;;;;;;;;;;;;;;;4919225;28;20462;-51
2022/03/17 15:13:40;;;;;;;;;;;;;;;;;;4910669;28;19922;-53
2022/03/17 15:16:05;;;;;;;;;;;;;;;;;;4935517;28;19922;-52
2022/03/17 15:18:30;;;;;;;;;;;;;;;;;;4943656;28;19945;-52
2022/03/17 15:20:57;;;;;;;;;;;;;;;;;;4958475;28;19921;-56
2022/03/17 15:23:23;;;;;;;;;;;;;;;;;;4955262;28;19926;-52
2022/03/17 15:25:48;;;;;;;;;;;;;;;;;;4962798;28;19984;-55
2022/03/17 15:30:57;;;;;;;;;;;;;;;;;;4960303;28;19967;-54
2022/03/17 15:33:22;;;;;;;;;;;;;;;;;;4956027;28;20365;-55
2022/03/17 15:35:47;;;;;;;;;;;;;;;;;;4951354;28;20312;-52
2022/03/17 15:38:14;;;;;;;;;;;;;;;;;;4960024;28;19922;-52
2022/03/17 15:40:39;;;;;;;;;;;;;;;;;;4960985;28;20731;-51
2022/03/17 15:43:05;;;;;;;;;;;;;;;;;;4958175;28;19937;-53
2022/03/17 15:45:30;;;;;;;;;;;;;;;;;;4956754;28;19961;-50
2022/03/17 15:47:55;;;;;;;;;;;;;;;;;;4960836;28;20320;-52
2022/03/17 15:50:21;;;;;;;;;;;;;;;;;;4961325;28;19980;-52
2022/03/17 15:52:47;;;;;;;;;;;;;;;;;;4917840;28;20579;-53
2022/03/17 15:55:13;;;;;;;;;;;;;;;;;;4917028;28;19922;-51
2022/03/17 15:57:38;;;;;;;;;;;;;;;;;;4926262;28;20506;-54
2022/03/17 16:00:03;;;;;;;;;;;;;;;;;;4925627;28;19926;-53
2022/03/17 16:02:28;;;;;;;;;;;;;;;;;;4911543;28;19933;-52
2022/03/17 16:04:54;;;;;;;;;;;;;;;;;;4941509;28;19966;-51
2022/03/17 16:07:19;;;;;;;;;;;;;;;;;;4962764;28;19918;-52
2022/03/17 16:15:12;;;;;;;;;;;;;;;;;;4981662;28;20432;-54
2022/03/17 16:17:37;;;;;;;;;;;;;;;;;;4981803;28;19925;-55
2022/03/17 16:20:02;;;;;;;;;;;;;;;;;;4988388;28;20373;-51
2022/03/17 16:22:28;;;;;;;;;;;;;;;;;;4985382;28;19922;-52
2022/03/17 16:24:53;;;;;;;;;;;;;;;;;;4985357;28;19917;-52
2022/03/17 16:27:18;;;;;;;;;;;;;;;;;;4989573;28;20005;-54
2022/03/17 16:29:44;;;;;;;;;;;;;;;;;;4986955;28;19929;-54
2022/03/17 16:32:09;;;;;;;;;;;;;;;;;;4983563;28;19921;-52
2022/03/17 16:34:34;;;;;;;;;;;;;;;;;;4984477;28;19933;-50
2022/03/17 16:36:59;;;;;;;;;;;;;;;;;;4988130;28;19914;-52
2022/03/17 16:39:24;;;;;;;;;;;;;;;;;;4984254;28;20503;-52
2022/03/17 16:41:49;;;;;;;;;;;;;;;;;;4983570;28;19920;-52
2022/03/17 16:44:14;;;;;;;;;;;;;;;;;;4985450;28;19925;-52
2022/03/17 16:46:40;;;;;;;;;;;;;;;;;;4984976;28;20369;-52
2022/03/17 16:49:05;;;;;;;;;;;;;;;;;;4986486;28;19928;-52
2022/03/17 16:51:30;;;;;;;;;;;;;;;;;;4985358;28;19922;-53
2022/03/17 16:53:55;;;;;;;;;;;;;;;;;;4985870;28;20369;-54